sensor_id;sensor_type;location;lat;lon;timestamp;P1;durP1;ratioP1;P2;durP2;ratioP2
18689;SDS011;9782;52.930;15.562;2023-02-01T05:20:39;12.40;;;2.80;;
18689;SDS011;9782;52.930;15.562;2023-02-01T05:23:06;14.07;;;2.73;;
18689;SDS011;9782;52.930;15.562;2023-02-01T05:25:33;10.97;;;2.10;;
18689;SDS011;9782;52.930;15.562;2023-02-01T05:28:00;10.60;;;2.40;;
18689;SDS011;9782;52.930;15.562;2023-02-01T05:30:27;9.80;;;2.20;;
18689;SDS011;9782;52.930;15.562;2023-02-01T05:32:53;14.43;;;1.97;;
18689;SDS011;9782;52.930;15.562;2023-02-01T05:35:21;8.33;;;2.10;;
18689;SDS011;9782;52.930;15.562;2023-02-01T05:40:31;16.60;;;3.30;;
18689;SDS011;9782;52.930;15.562;2023-02-01T05:42:58;17.60;;;3.37;;
18689;SDS011;9782;52.930;15.562;2023-02-01T05:53:52;15.67;;;3.57;;
18689;SDS011;9782;52.930;15.562;2023-02-01T05:56:23;15.53;;;3.50;;
18689;SDS011;9782;52.930;15.562;2023-02-01T05:58:50;11.23;;;2.43;;
18689;SDS011;9782;52.930;15.562;2023-02-01T06:01:17;12.83;;;2.70;;
18689;SDS011;9782;52.930;15.562;2023-02-01T06:03:44;12.33;;;2.67;;
18689;SDS011;9782;52.930;15.562;2023-02-01T06:06:11;16.33;;;3.20;;
18689;SDS011;9782;52.930;15.562;2023-02-01T06:08:38;11.87;;;2.93;;
18689;SDS011;9782;52.930;15.562;2023-02-01T06:11:06;23.03;;;3.67;;
18689;SDS011;9782;52.930;15.562;2023-02-01T06:13:34;14.93;;;2.60;;
18689;SDS011;9782;52.930;15.562;2023-02-01T06:16:03;18.47;;;3.40;;
18689;SDS011;9782;52.930;15.562;2023-02-01T06:18:32;11.53;;;2.60;;
18689;SDS011;9782;52.930;15.562;2023-02-01T06:21:02;14.97;;;2.80;;
18689;SDS011;9782;52.930;15.562;2023-02-01T06:23:48;9.10;;;2.57;;
18689;SDS011;9782;52.930;15.562;2023-02-01T06:26:15;13.30;;;2.67;;
18689;SDS011;9782;52.930;15.562;2023-02-01T06:28:44;13.97;;;3.13;;
18689;SDS011;9782;52.930;15.562;2023-02-01T06:31:11;13.73;;;2.80;;
18689;SDS011;9782;52.930;15.562;2023-02-01T06:33:39;11.17;;;4.10;;
18689;SDS011;9782;52.930;15.562;2023-02-01T06:36:07;13.33;;;2.70;;
18689;SDS011;9782;52.930;15.562;2023-02-01T06:38:37;17.23;;;3.00;;
18689;SDS011;9782;52.930;15.562;2023-02-01T06:41:04;16.90;;;2.40;;
18689;SDS011;9782;52.930;15.562;2023-02-01T06:43:31;16.70;;;2.83;;
18689;SDS011;9782;52.930;15.562;2023-02-01T06:46:00;14.63;;;3.30;;
18689;SDS011;9782;52.930;15.562;2023-02-01T06:48:29;72.33;;;18.63;;
18689;SDS011;9782;52.930;15.562;2023-02-01T06:50:57;46.67;;;15.20;;
18689;SDS011;9782;52.930;15.562;2023-02-01T06:53:24;20.73;;;6.33;;
18689;SDS011;9782;52.930;15.562;2023-02-01T06:55:52;22.37;;;6.93;;
18689;SDS011;9782;52.930;15.562;2023-02-01T06:58:20;92.67;;;35.60;;
18689;SDS011;9782;52.930;15.562;2023-02-01T07:00:47;39.30;;;16.93;;
18689;SDS011;9782;52.930;15.562;2023-02-01T07:03:16;39.57;;;14.67;;
18689;SDS011;9782;52.930;15.562;2023-02-01T07:05:43;30.03;;;6.07;;
18689;SDS011;9782;52.930;15.562;2023-02-01T07:08:10;21.13;;;7.67;;
18689;SDS011;9782;52.930;15.562;2023-02-01T07:10:37;27.27;;;10.07;;
18689;SDS011;9782;52.930;15.562;2023-02-01T07:13:04;24.03;;;7.83;;
18689;SDS011;9782;52.930;15.562;2023-02-01T07:15:31;25.90;;;5.83;;
18689;SDS011;9782;52.930;15.562;2023-02-01T07:17:58;24.30;;;8.40;;
18689;SDS011;9782;52.930;15.562;2023-02-01T07:20:26;23.43;;;8.27;;
18689;SDS011;9782;52.930;15.562;2023-02-01T07:22:54;15.10;;;2.40;;
18689;SDS011;9782;52.930;15.562;2023-02-01T07:25:22;14.27;;;3.57;;
18689;SDS011;9782;52.930;15.562;2023-02-01T07:27:49;12.90;;;2.73;;
18689;SDS011;9782;52.930;15.562;2023-02-01T07:30:16;14.50;;;3.20;;
18689;SDS011;9782;52.930;15.562;2023-02-01T07:32:44;15.20;;;2.13;;
18689;SDS011;9782;52.930;15.562;2023-02-01T07:35:11;15.37;;;3.60;;
18689;SDS011;9782;52.930;15.562;2023-02-01T07:37:40;16.47;;;3.33;;
18689;SDS011;9782;52.930;15.562;2023-02-01T07:40:08;17.90;;;3.43;;
18689;SDS011;9782;52.930;15.562;2023-02-01T07:42:36;22.80;;;4.67;;
18689;SDS011;9782;52.930;15.562;2023-02-01T07:45:03;21.23;;;3.67;;
18689;SDS011;9782;52.930;15.562;2023-02-01T07:47:31;15.33;;;3.97;;
18689;SDS011;9782;52.930;15.562;2023-02-01T07:49:58;12.43;;;2.60;;
18689;SDS011;9782;52.930;15.562;2023-02-01T07:52:27;18.70;;;3.40;;
18689;SDS011;9782;52.930;15.562;2023-02-01T07:54:55;13.70;;;3.20;;
18689;SDS011;9782;52.930;15.562;2023-02-01T07:57:23;11.27;;;2.60;;
18689;SDS011;9782;52.930;15.562;2023-02-01T07:59:50;13.97;;;3.60;;
18689;SDS011;9782;52.930;15.562;2023-02-01T08:02:34;22.43;;;6.40;;
18689;SDS011;9782;52.930;15.562;2023-02-01T08:05:01;18.03;;;4.70;;
18689;SDS011;9782;52.930;15.562;2023-02-01T08:07:30;16.70;;;3.63;;
18689;SDS011;9782;52.930;15.562;2023-02-01T08:09:58;15.63;;;3.00;;
18689;SDS011;9782;52.930;15.562;2023-02-01T08:12:26;13.37;;;3.43;;
18689;SDS011;9782;52.930;15.562;2023-02-01T08:14:53;10.07;;;2.70;;
18689;SDS011;9782;52.930;15.562;2023-02-01T08:17:21;15.23;;;3.77;;
18689;SDS011;9782;52.930;15.562;2023-02-01T08:19:48;10.40;;;2.90;;
18689;SDS011;9782;52.930;15.562;2023-02-01T08:22:15;11.87;;;2.47;;
18689;SDS011;9782;52.930;15.562;2023-02-01T08:24:42;11.20;;;3.03;;
18689;SDS011;9782;52.930;15.562;2023-02-01T08:27:11;11.00;;;2.73;;
18689;SDS011;9782;52.930;15.562;2023-02-01T08:29:38;11.10;;;2.73;;
18689;SDS011;9782;52.930;15.562;2023-02-01T08:32:05;9.90;;;2.30;;
18689;SDS011;9782;52.930;15.562;2023-02-01T08:34:33;12.70;;;2.50;;
18689;SDS011;9782;52.930;15.562;2023-02-01T08:37:00;12.40;;;2.30;;
18689;SDS011;9782;52.930;15.562;2023-02-01T08:39:27;10.83;;;2.60;;
18689;SDS011;9782;52.930;15.562;2023-02-01T08:41:54;9.13;;;2.37;;
18689;SDS011;9782;52.930;15.562;2023-02-01T08:44:41;13.07;;;2.80;;
18689;SDS011;9782;52.930;15.562;2023-02-01T08:47:14;13.03;;;2.53;;
18689;SDS011;9782;52.930;15.562;2023-02-01T08:49:41;11.90;;;3.27;;
18689;SDS011;9782;52.930;15.562;2023-02-01T08:52:08;13.60;;;5.37;;
18689;SDS011;9782;52.930;15.562;2023-02-01T08:54:35;8.57;;;2.77;;
18689;SDS011;9782;52.930;15.562;2023-02-01T08:57:02;13.30;;;2.70;;
18689;SDS011;9782;52.930;15.562;2023-02-01T08:59:29;8.77;;;3.43;;
18689;SDS011;9782;52.930;15.562;2023-02-01T09:01:57;10.40;;;2.67;;
18689;SDS011;9782;52.930;15.562;2023-02-01T09:04:24;10.00;;;2.47;;
18689;SDS011;9782;52.930;15.562;2023-02-01T09:06:51;12.53;;;2.73;;
18689;SDS011;9782;52.930;15.562;2023-02-01T09:09:20;12.53;;;2.97;;
18689;SDS011;9782;52.930;15.562;2023-02-01T09:11:47;20.57;;;2.20;;
18689;SDS011;9782;52.930;15.562;2023-02-01T09:14:15;10.70;;;2.40;;
18689;SDS011;9782;52.930;15.562;2023-02-01T09:16:42;8.37;;;2.97;;
18689;SDS011;9782;52.930;15.562;2023-02-01T09:19:10;7.07;;;2.50;;
18689;SDS011;9782;52.930;15.562;2023-02-01T09:22:31;9.33;;;2.57;;
18689;SDS011;9782;52.930;15.562;2023-02-01T09:24:58;7.57;;;2.80;;
18689;SDS011;9782;52.930;15.562;2023-02-01T09:27:25;6.33;;;1.80;;
18689;SDS011;9782;52.930;15.562;2023-02-01T09:29:52;7.83;;;2.30;;
18689;SDS011;9782;52.930;15.562;2023-02-01T09:32:19;6.13;;;1.93;;
18689;SDS011;9782;52.930;15.562;2023-02-01T09:34:46;10.07;;;3.37;;
18689;SDS011;9782;52.930;15.562;2023-02-01T09:37:13;5.03;;;2.27;;
18689;SDS011;9782;52.930;15.562;2023-02-01T09:39:41;14.73;;;7.73;;
18689;SDS011;9782;52.930;15.562;2023-02-01T09:42:14;5.10;;;1.67;;
18689;SDS011;9782;52.930;15.562;2023-02-01T09:44:59;6.40;;;2.00;;
18689;SDS011;9782;52.930;15.562;2023-02-01T09:47:32;5.87;;;1.50;;
18689;SDS011;9782;52.930;15.562;2023-02-01T09:50:01;8.73;;;4.70;;
18689;SDS011;9782;52.930;15.562;2023-02-01T09:52:31;6.87;;;3.23;;
18689;SDS011;9782;52.930;15.562;2023-02-01T09:55:06;7.20;;;1.70;;
18689;SDS011;9782;52.930;15.562;2023-02-01T09:57:40;5.30;;;2.20;;
18689;SDS011;9782;52.930;15.562;2023-02-01T10:00:16;8.10;;;2.60;;
18689;SDS011;9782;52.930;15.562;2023-02-01T10:02:46;4.70;;;3.23;;
18689;SDS011;9782;52.930;15.562;2023-02-01T10:05:14;8.87;;;3.80;;
18689;SDS011;9782;52.930;15.562;2023-02-01T10:07:44;7.07;;;2.50;;
18689;SDS011;9782;52.930;15.562;2023-02-01T10:10:20;3.13;;;1.20;;
18689;SDS011;9782;52.930;15.562;2023-02-01T10:15:58;4.20;;;1.50;;
18689;SDS011;9782;52.930;15.562;2023-02-01T10:18:48;3.50;;;1.30;;
18689;SDS011;9782;52.930;15.562;2023-02-01T10:21:47;3.47;;;1.57;;
18689;SDS011;9782;52.930;15.562;2023-02-01T10:24:39;8.10;;;2.43;;
18689;SDS011;9782;52.930;15.562;2023-02-01T10:27:12;4.70;;;2.53;;
18689;SDS011;9782;52.930;15.562;2023-02-01T10:29:43;2.87;;;1.50;;
18689;SDS011;9782;52.930;15.562;2023-02-01T10:32:12;3.50;;;2.00;;
18689;SDS011;9782;52.930;15.562;2023-02-01T10:34:41;5.87;;;2.73;;
18689;SDS011;9782;52.930;15.562;2023-02-01T10:37:13;3.40;;;1.53;;
18689;SDS011;9782;52.930;15.562;2023-02-01T10:39:48;4.87;;;1.50;;
18689;SDS011;9782;52.930;15.562;2023-02-01T10:42:21;3.00;;;1.33;;
18689;SDS011;9782;52.930;15.562;2023-02-01T10:44:51;6.00;;;3.13;;
18689;SDS011;9782;52.930;15.562;2023-02-01T10:47:19;4.20;;;1.53;;
18689;SDS011;9782;52.930;15.562;2023-02-01T10:49:48;2.87;;;1.40;;
18689;SDS011;9782;52.930;15.562;2023-02-01T10:52:21;3.13;;;1.30;;
18689;SDS011;9782;52.930;15.562;2023-02-01T10:54:56;4.23;;;1.57;;
18689;SDS011;9782;52.930;15.562;2023-02-01T10:57:48;5.50;;;2.00;;
18689;SDS011;9782;52.930;15.562;2023-02-01T11:00:22;4.77;;;2.10;;
18689;SDS011;9782;52.930;15.562;2023-02-01T11:02:49;3.97;;;1.63;;
18689;SDS011;9782;52.930;15.562;2023-02-01T11:05:16;4.27;;;2.17;;
18689;SDS011;9782;52.930;15.562;2023-02-01T11:07:46;4.63;;;1.73;;
18689;SDS011;9782;52.930;15.562;2023-02-01T11:13:04;3.70;;;2.03;;
18689;SDS011;9782;52.930;15.562;2023-02-01T11:15:37;5.07;;;2.00;;
18689;SDS011;9782;52.930;15.562;2023-02-01T11:18:14;10.07;;;7.40;;
18689;SDS011;9782;52.930;15.562;2023-02-01T11:20:43;6.60;;;2.07;;
18689;SDS011;9782;52.930;15.562;2023-02-01T11:23:14;7.83;;;3.17;;
18689;SDS011;9782;52.930;15.562;2023-02-01T11:25:49;8.07;;;3.27;;
18689;SDS011;9782;52.930;15.562;2023-02-01T11:28:20;4.60;;;2.40;;
18689;SDS011;9782;52.930;15.562;2023-02-01T11:30:49;9.57;;;3.70;;
18689;SDS011;9782;52.930;15.562;2023-02-01T11:33:20;6.97;;;3.73;;
18689;SDS011;9782;52.930;15.562;2023-02-01T11:35:52;6.23;;;3.20;;
18689;SDS011;9782;52.930;15.562;2023-02-01T11:38:21;5.07;;;1.50;;
18689;SDS011;9782;52.930;15.562;2023-02-01T11:40:52;7.13;;;2.57;;
18689;SDS011;9782;52.930;15.562;2023-02-01T11:43:23;6.03;;;2.47;;
18689;SDS011;9782;52.930;15.562;2023-02-01T11:45:56;7.03;;;2.80;;
18689;SDS011;9782;52.930;15.562;2023-02-01T11:48:24;7.97;;;2.70;;
18689;SDS011;9782;52.930;15.562;2023-02-01T11:50:54;23.87;;;11.93;;
18689;SDS011;9782;52.930;15.562;2023-02-01T11:53:46;27.70;;;17.00;;
18689;SDS011;9782;52.930;15.562;2023-02-01T11:56:33;36.87;;;21.97;;
18689;SDS011;9782;52.930;15.562;2023-02-01T11:59:14;17.30;;;7.90;;
18689;SDS011;9782;52.930;15.562;2023-02-01T12:01:57;11.63;;;5.10;;
18689;SDS011;9782;52.930;15.562;2023-02-01T12:04:58;19.17;;;9.40;;
18689;SDS011;9782;52.930;15.562;2023-02-01T12:07:52;7.87;;;3.53;;
18689;SDS011;9782;52.930;15.562;2023-02-01T12:10:29;13.27;;;6.73;;
18689;SDS011;9782;52.930;15.562;2023-02-01T12:13:07;11.87;;;5.50;;
18689;SDS011;9782;52.930;15.562;2023-02-01T12:15:45;6.23;;;2.00;;
18689;SDS011;9782;52.930;15.562;2023-02-01T12:18:35;5.97;;;4.30;;
18689;SDS011;9782;52.930;15.562;2023-02-01T12:21:28;5.43;;;2.40;;
18689;SDS011;9782;52.930;15.562;2023-02-01T12:24:18;8.03;;;2.80;;
18689;SDS011;9782;52.930;15.562;2023-02-01T12:27:02;6.77;;;2.30;;
18689;SDS011;9782;52.930;15.562;2023-02-01T12:29:53;7.20;;;1.50;;
18689;SDS011;9782;52.930;15.562;2023-02-01T12:32:33;6.33;;;2.87;;
18689;SDS011;9782;52.930;15.562;2023-02-01T12:35:14;9.00;;;2.60;;
18689;SDS011;9782;52.930;15.562;2023-02-01T12:37:57;4.10;;;1.50;;
18689;SDS011;9782;52.930;15.562;2023-02-01T12:40:39;11.33;;;2.80;;
18689;SDS011;9782;52.930;15.562;2023-02-01T12:43:14;12.93;;;3.50;;
18689;SDS011;9782;52.930;15.562;2023-02-01T12:45:48;10.93;;;3.93;;
18689;SDS011;9782;52.930;15.562;2023-02-01T12:48:22;10.30;;;4.43;;
18689;SDS011;9782;52.930;15.562;2023-02-01T12:50:55;7.10;;;3.60;;
18689;SDS011;9782;52.930;15.562;2023-02-01T12:53:27;13.03;;;5.10;;
18689;SDS011;9782;52.930;15.562;2023-02-01T12:56:02;7.67;;;2.47;;
18689;SDS011;9782;52.930;15.562;2023-02-01T12:58:36;12.43;;;3.30;;
18689;SDS011;9782;52.930;15.562;2023-02-01T13:01:09;10.43;;;4.10;;
18689;SDS011;9782;52.930;15.562;2023-02-01T13:03:41;11.17;;;3.50;;
18689;SDS011;9782;52.930;15.562;2023-02-01T13:06:17;9.23;;;3.03;;
18689;SDS011;9782;52.930;15.562;2023-02-01T13:08:48;11.13;;;3.90;;
18689;SDS011;9782;52.930;15.562;2023-02-01T13:11:20;39.37;;;15.87;;
18689;SDS011;9782;52.930;15.562;2023-02-01T13:13:54;25.30;;;8.47;;
18689;SDS011;9782;52.930;15.562;2023-02-01T13:16:26;13.00;;;4.07;;
18689;SDS011;9782;52.930;15.562;2023-02-01T13:19:00;17.97;;;7.50;;
18689;SDS011;9782;52.930;15.562;2023-02-01T13:21:33;14.07;;;5.97;;
18689;SDS011;9782;52.930;15.562;2023-02-01T13:24:03;14.53;;;3.90;;
18689;SDS011;9782;52.930;15.562;2023-02-01T13:26:30;9.03;;;3.07;;
18689;SDS011;9782;52.930;15.562;2023-02-01T13:28:58;10.97;;;3.57;;
18689;SDS011;9782;52.930;15.562;2023-02-01T13:31:40;11.50;;;3.63;;
18689;SDS011;9782;52.930;15.562;2023-02-01T13:37:43;7.30;;;2.83;;
18689;SDS011;9782;52.930;15.562;2023-02-01T13:40:26;10.40;;;3.00;;
18689;SDS011;9782;52.930;15.562;2023-02-01T13:43:05;7.73;;;2.20;;
18689;SDS011;9782;52.930;15.562;2023-02-01T13:45:37;7.63;;;3.73;;
18689;SDS011;9782;52.930;15.562;2023-02-01T13:48:14;7.60;;;2.37;;
18689;SDS011;9782;52.930;15.562;2023-02-01T13:50:50;4.93;;;1.60;;
18689;SDS011;9782;52.930;15.562;2023-02-01T13:53:22;7.40;;;2.60;;
18689;SDS011;9782;52.930;15.562;2023-02-01T13:56:00;16.60;;;7.23;;
18689;SDS011;9782;52.930;15.562;2023-02-01T13:58:32;8.80;;;2.00;;
18689;SDS011;9782;52.930;15.562;2023-02-01T14:07:19;10.67;;;2.03;;
18689;SDS011;9782;52.930;15.562;2023-02-01T14:09:46;9.00;;;1.47;;
18689;SDS011;9782;52.930;15.562;2023-02-01T14:15:18;6.77;;;1.70;;
18689;SDS011;9782;52.930;15.562;2023-02-01T14:17:48;8.07;;;2.27;;
18689;SDS011;9782;52.930;15.562;2023-02-01T14:26:11;10.37;;;2.57;;
18689;SDS011;9782;52.930;15.562;2023-02-01T14:34:31;5.47;;;2.20;;
18689;SDS011;9782;52.930;15.562;2023-02-01T14:37:08;3.83;;;1.80;;
18689;SDS011;9782;52.930;15.562;2023-02-01T14:39:46;7.20;;;1.80;;
18689;SDS011;9782;52.930;15.562;2023-02-01T14:42:22;5.47;;;1.53;;
18689;SDS011;9782;52.930;15.562;2023-02-01T14:44:53;5.43;;;1.50;;
18689;SDS011;9782;52.930;15.562;2023-02-01T14:47:31;6.77;;;1.70;;
18689;SDS011;9782;52.930;15.562;2023-02-01T14:50:02;5.47;;;2.03;;
18689;SDS011;9782;52.930;15.562;2023-02-01T14:52:38;7.57;;;1.73;;
18689;SDS011;9782;52.930;15.562;2023-02-01T14:55:11;8.83;;;1.83;;
18689;SDS011;9782;52.930;15.562;2023-02-01T14:57:42;5.50;;;1.80;;
18689;SDS011;9782;52.930;15.562;2023-02-01T15:00:18;5.07;;;1.67;;
18689;SDS011;9782;52.930;15.562;2023-02-01T15:02:48;12.43;;;4.50;;
18689;SDS011;9782;52.930;15.562;2023-02-01T15:05:27;8.37;;;2.40;;
18689;SDS011;9782;52.930;15.562;2023-02-01T15:07:58;6.27;;;1.50;;
18689;SDS011;9782;52.930;15.562;2023-02-01T15:10:32;11.57;;;3.20;;
18689;SDS011;9782;52.930;15.562;2023-02-01T15:13:12;9.27;;;1.90;;
18689;SDS011;9782;52.930;15.562;2023-02-01T15:15:45;12.00;;;2.80;;
18689;SDS011;9782;52.930;15.562;2023-02-01T15:18:28;3.27;;;1.70;;
18689;SDS011;9782;52.930;15.562;2023-02-01T15:20:58;7.23;;;2.23;;
18689;SDS011;9782;52.930;15.562;2023-02-01T15:23:26;6.30;;;1.93;;
18689;SDS011;9782;52.930;15.562;2023-02-01T15:25:55;7.00;;;2.00;;
18689;SDS011;9782;52.930;15.562;2023-02-01T15:28:22;7.17;;;1.90;;
18689;SDS011;9782;52.930;15.562;2023-02-01T15:30:53;7.23;;;2.33;;
18689;SDS011;9782;52.930;15.562;2023-02-01T15:33:22;7.53;;;1.93;;
18689;SDS011;9782;52.930;15.562;2023-02-01T15:35:50;7.87;;;2.23;;
18689;SDS011;9782;52.930;15.562;2023-02-01T15:38:18;4.83;;;2.00;;
18689;SDS011;9782;52.930;15.562;2023-02-01T15:41:03;8.00;;;2.73;;
18689;SDS011;9782;52.930;15.562;2023-02-01T15:43:34;12.43;;;2.57;;
18689;SDS011;9782;52.930;15.562;2023-02-01T15:46:03;13.53;;;3.87;;
18689;SDS011;9782;52.930;15.562;2023-02-01T15:48:36;18.40;;;7.53;;
18689;SDS011;9782;52.930;15.562;2023-02-01T15:51:06;24.97;;;11.10;;
18689;SDS011;9782;52.930;15.562;2023-02-01T15:53:39;20.83;;;9.43;;
18689;SDS011;9782;52.930;15.562;2023-02-01T15:56:13;21.67;;;8.27;;
18689;SDS011;9782;52.930;15.562;2023-02-01T15:58:41;6.90;;;2.53;;
18689;SDS011;9782;52.930;15.562;2023-02-01T16:01:11;7.13;;;2.23;;
18689;SDS011;9782;52.930;15.562;2023-02-01T16:03:39;5.27;;;1.90;;
18689;SDS011;9782;52.930;15.562;2023-02-01T16:06:07;5.90;;;2.57;;
18689;SDS011;9782;52.930;15.562;2023-02-01T16:08:48;5.47;;;2.23;;
18689;SDS011;9782;52.930;15.562;2023-02-01T16:14:04;20.03;;;6.63;;
18689;SDS011;9782;52.930;15.562;2023-02-01T16:16:31;13.23;;;4.67;;
18689;SDS011;9782;52.930;15.562;2023-02-01T16:18:57;14.63;;;4.73;;
18689;SDS011;9782;52.930;15.562;2023-02-01T16:21:24;10.90;;;3.50;;
18689;SDS011;9782;52.930;15.562;2023-02-01T16:23:51;9.93;;;3.20;;
18689;SDS011;9782;52.930;15.562;2023-02-01T16:26:19;6.47;;;1.90;;
18689;SDS011;9782;52.930;15.562;2023-02-01T16:28:46;5.40;;;2.23;;
18689;SDS011;9782;52.930;15.562;2023-02-01T16:31:17;7.50;;;3.00;;
18689;SDS011;9782;52.930;15.562;2023-02-01T16:33:46;6.23;;;2.77;;
18689;SDS011;9782;52.930;15.562;2023-02-01T16:36:15;3.07;;;1.10;;
18689;SDS011;9782;52.930;15.562;2023-02-01T16:38:42;4.50;;;1.70;;
18689;SDS011;9782;52.930;15.562;2023-02-01T16:41:11;7.50;;;3.60;;
18689;SDS011;9782;52.930;15.562;2023-02-01T16:51:28;5.33;;;2.23;;
18689;SDS011;9782;52.930;15.562;2023-02-01T16:53:57;6.07;;;2.07;;
18689;SDS011;9782;52.930;15.562;2023-02-01T16:56:27;4.33;;;2.37;;
18689;SDS011;9782;52.930;15.562;2023-02-01T16:58:56;13.47;;;6.17;;
18689;SDS011;9782;52.930;15.562;2023-02-01T17:01:22;7.93;;;4.03;;
18689;SDS011;9782;52.930;15.562;2023-02-01T17:03:49;8.50;;;3.17;;
18689;SDS011;9782;52.930;15.562;2023-02-01T17:06:17;6.57;;;2.83;;
18689;SDS011;9782;52.930;15.562;2023-02-01T17:08:47;6.23;;;2.83;;
18689;SDS011;9782;52.930;15.562;2023-02-01T17:11:17;10.83;;;4.70;;
18689;SDS011;9782;52.930;15.562;2023-02-01T17:13:44;4.50;;;2.67;;
18689;SDS011;9782;52.930;15.562;2023-02-01T17:16:21;9.07;;;3.03;;
18689;SDS011;9782;52.930;15.562;2023-02-01T17:18:52;5.70;;;2.80;;
18689;SDS011;9782;52.930;15.562;2023-02-01T17:21:22;4.23;;;2.67;;
18689;SDS011;9782;52.930;15.562;2023-02-01T17:23:51;9.73;;;4.10;;
18689;SDS011;9782;52.930;15.562;2023-02-01T17:26:18;10.40;;;4.80;;
18689;SDS011;9782;52.930;15.562;2023-02-01T17:28:45;4.83;;;2.37;;
18689;SDS011;9782;52.930;15.562;2023-02-01T17:31:13;8.37;;;3.67;;
18689;SDS011;9782;52.930;15.562;2023-02-01T17:33:40;6.97;;;3.53;;
18689;SDS011;9782;52.930;15.562;2023-02-01T17:36:09;9.87;;;4.17;;
18689;SDS011;9782;52.930;15.562;2023-02-01T17:38:39;5.70;;;2.90;;
18689;SDS011;9782;52.930;15.562;2023-02-01T17:41:09;6.20;;;2.87;;
18689;SDS011;9782;52.930;15.562;2023-02-01T17:43:40;8.07;;;3.47;;
18689;SDS011;9782;52.930;15.562;2023-02-01T17:46:10;8.67;;;3.00;;
18689;SDS011;9782;52.930;15.562;2023-02-01T17:48:38;8.33;;;3.00;;
18689;SDS011;9782;52.930;15.562;2023-02-01T17:51:11;7.57;;;3.30;;
18689;SDS011;9782;52.930;15.562;2023-02-01T17:53:40;6.73;;;2.30;;
18689;SDS011;9782;52.930;15.562;2023-02-01T17:56:10;3.97;;;1.80;;
18689;SDS011;9782;52.930;15.562;2023-02-01T17:58:42;5.03;;;1.60;;
18689;SDS011;9782;52.930;15.562;2023-02-01T18:01:12;4.17;;;1.90;;
18689;SDS011;9782;52.930;15.562;2023-02-01T18:03:40;3.47;;;1.73;;
18689;SDS011;9782;52.930;15.562;2023-02-01T18:06:11;5.00;;;1.53;;
18689;SDS011;9782;52.930;15.562;2023-02-01T18:08:39;4.93;;;1.57;;
18689;SDS011;9782;52.930;15.562;2023-02-01T18:11:10;3.13;;;1.70;;
18689;SDS011;9782;52.930;15.562;2023-02-01T18:13:39;34.60;;;17.47;;
18689;SDS011;9782;52.930;15.562;2023-02-01T18:16:07;50.30;;;21.00;;
18689;SDS011;9782;52.930;15.562;2023-02-01T18:18:42;24.57;;;11.00;;
18689;SDS011;9782;52.930;15.562;2023-02-01T18:21:09;9.80;;;5.20;;
18689;SDS011;9782;52.930;15.562;2023-02-01T18:23:36;8.57;;;3.63;;
18689;SDS011;9782;52.930;15.562;2023-02-01T18:26:03;26.00;;;12.23;;
18689;SDS011;9782;52.930;15.562;2023-02-01T18:28:31;28.80;;;11.97;;
18689;SDS011;9782;52.930;15.562;2023-02-01T18:30:58;37.57;;;18.23;;
18689;SDS011;9782;52.930;15.562;2023-02-01T18:33:27;30.07;;;14.97;;
18689;SDS011;9782;52.930;15.562;2023-02-01T18:35:54;13.73;;;5.57;;
18689;SDS011;9782;52.930;15.562;2023-02-01T18:38:20;12.70;;;5.47;;
18689;SDS011;9782;52.930;15.562;2023-02-01T18:40:48;14.77;;;5.80;;
18689;SDS011;9782;52.930;15.562;2023-02-01T18:43:16;15.43;;;6.43;;
18689;SDS011;9782;52.930;15.562;2023-02-01T18:45:44;13.47;;;8.00;;
18689;SDS011;9782;52.930;15.562;2023-02-01T18:48:13;10.13;;;4.90;;
18689;SDS011;9782;52.930;15.562;2023-02-01T18:50:41;14.27;;;6.80;;
18689;SDS011;9782;52.930;15.562;2023-02-01T18:53:11;6.70;;;3.17;;
18689;SDS011;9782;52.930;15.562;2023-02-01T18:55:40;12.20;;;4.03;;
18689;SDS011;9782;52.930;15.562;2023-02-01T18:58:07;10.93;;;5.37;;
18689;SDS011;9782;52.930;15.562;2023-02-01T19:00:37;9.07;;;3.63;;
18689;SDS011;9782;52.930;15.562;2023-02-01T19:03:05;8.37;;;4.30;;
18689;SDS011;9782;52.930;15.562;2023-02-01T19:05:32;9.10;;;3.50;;
18689;SDS011;9782;52.930;15.562;2023-02-01T19:07:59;5.77;;;2.70;;
18689;SDS011;9782;52.930;15.562;2023-02-01T19:10:26;5.83;;;2.47;;
18689;SDS011;9782;52.930;15.562;2023-02-01T19:12:53;7.43;;;3.10;;
18689;SDS011;9782;52.930;15.562;2023-02-01T19:15:21;8.33;;;3.30;;
18689;SDS011;9782;52.930;15.562;2023-02-01T19:17:49;8.37;;;3.30;;
18689;SDS011;9782;52.930;15.562;2023-02-01T19:20:20;7.77;;;2.20;;
18689;SDS011;9782;52.930;15.562;2023-02-01T19:22:49;8.13;;;2.47;;
18689;SDS011;9782;52.930;15.562;2023-02-01T19:25:16;5.47;;;2.70;;
18689;SDS011;9782;52.930;15.562;2023-02-01T19:27:44;7.40;;;2.37;;
18689;SDS011;9782;52.930;15.562;2023-02-01T19:30:11;6.07;;;2.67;;
18689;SDS011;9782;52.930;15.562;2023-02-01T19:32:39;4.93;;;1.90;;
18689;SDS011;9782;52.930;15.562;2023-02-01T19:35:06;10.23;;;2.20;;
18689;SDS011;9782;52.930;15.562;2023-02-01T19:37:36;4.17;;;2.30;;
18689;SDS011;9782;52.930;15.562;2023-02-01T19:40:05;4.87;;;2.30;;
18689;SDS011;9782;52.930;15.562;2023-02-01T19:42:33;6.33;;;2.27;;
18689;SDS011;9782;52.930;15.562;2023-02-01T19:45:00;4.00;;;1.70;;
18689;SDS011;9782;52.930;15.562;2023-02-01T19:47:27;5.60;;;1.70;;
18689;SDS011;9782;52.930;15.562;2023-02-01T19:49:54;5.50;;;2.20;;
18689;SDS011;9782;52.930;15.562;2023-02-01T19:52:20;5.50;;;2.10;;
18689;SDS011;9782;52.930;15.562;2023-02-01T19:54:49;6.33;;;2.10;;
18689;SDS011;9782;52.930;15.562;2023-02-01T19:57:15;5.47;;;2.20;;
18689;SDS011;9782;52.930;15.562;2023-02-01T19:59:42;4.73;;;2.10;;
18689;SDS011;9782;52.930;15.562;2023-02-01T20:02:10;7.40;;;2.23;;
18689;SDS011;9782;52.930;15.562;2023-02-01T20:04:39;6.90;;;1.70;;
18689;SDS011;9782;52.930;15.562;2023-02-01T20:07:06;4.43;;;1.90;;
18689;SDS011;9782;52.930;15.562;2023-02-01T20:09:35;6.60;;;1.63;;
18689;SDS011;9782;52.930;15.562;2023-02-01T20:12:05;3.80;;;1.67;;
18689;SDS011;9782;52.930;15.562;2023-02-01T20:14:32;7.73;;;2.30;;
18689;SDS011;9782;52.930;15.562;2023-02-01T20:16:58;3.97;;;1.50;;
18689;SDS011;9782;52.930;15.562;2023-02-01T20:19:25;7.03;;;1.70;;
18689;SDS011;9782;52.930;15.562;2023-02-01T20:21:52;6.70;;;2.23;;
18689;SDS011;9782;52.930;15.562;2023-02-01T20:24:19;7.07;;;1.80;;
18689;SDS011;9782;52.930;15.562;2023-02-01T20:26:46;6.43;;;2.10;;
18689;SDS011;9782;52.930;15.562;2023-02-01T20:29:15;7.87;;;1.90;;
18689;SDS011;9782;52.930;15.562;2023-02-01T20:31:43;6.70;;;2.00;;
18689;SDS011;9782;52.930;15.562;2023-02-01T20:34:10;6.67;;;1.90;;
18689;SDS011;9782;52.930;15.562;2023-02-01T20:36:38;5.27;;;1.90;;
18689;SDS011;9782;52.930;15.562;2023-02-01T20:39:06;5.70;;;1.77;;
18689;SDS011;9782;52.930;15.562;2023-02-01T20:41:33;7.77;;;2.20;;
18689;SDS011;9782;52.930;15.562;2023-02-01T20:44:00;9.37;;;2.00;;
18689;SDS011;9782;52.930;15.562;2023-02-01T20:46:28;7.50;;;2.33;;
18689;SDS011;9782;52.930;15.562;2023-02-01T20:48:55;11.23;;;2.30;;
18689;SDS011;9782;52.930;15.562;2023-02-01T20:51:22;10.03;;;1.73;;
18689;SDS011;9782;52.930;15.562;2023-02-01T20:53:49;5.00;;;1.60;;
18689;SDS011;9782;52.930;15.562;2023-02-01T20:56:16;13.70;;;2.87;;
18689;SDS011;9782;52.930;15.562;2023-02-01T20:58:44;7.13;;;1.73;;
18689;SDS011;9782;52.930;15.562;2023-02-01T21:01:11;8.93;;;2.00;;
18689;SDS011;9782;52.930;15.562;2023-02-01T21:03:39;7.70;;;1.87;;
18689;SDS011;9782;52.930;15.562;2023-02-01T21:06:07;8.00;;;2.10;;
18689;SDS011;9782;52.930;15.562;2023-02-01T21:08:36;8.97;;;2.13;;
18689;SDS011;9782;52.930;15.562;2023-02-01T21:11:04;8.63;;;2.03;;
18689;SDS011;9782;52.930;15.562;2023-02-01T21:13:35;8.40;;;1.80;;